createdAt,value
2022-12-29T00:05:24.021Z,11.29
2022-12-29T00:15:39.888Z,11.30
2022-12-29T00:26:07.129Z,11.34
2022-12-29T00:36:14.039Z,11.44
2022-12-29T00:46:20.262Z,11.53
2022-12-29T00:56:23.461Z,11.51
2022-12-29T01:06:28.003Z,11.61
2022-12-29T01:16:31.095Z,11.67
2022-12-29T01:26:35.831Z,11.77
2022-12-29T01:36:38.938Z,11.87
2022-12-29T01:46:48.636Z,11.98
2022-12-29T01:56:53.238Z,12.03
2022-12-29T02:07:01.606Z,11.95
2022-12-29T02:17:15.854Z,11.99
2022-12-29T02:27:50.847Z,11.89
2022-12-29T02:38:05.451Z,11.80
2022-12-29T02:48:17.306Z,11.76
2022-12-29T02:58:25.026Z,11.80
2022-12-29T03:08:37.014Z,11.83
2022-12-29T03:18:49.670Z,11.93
2022-12-29T03:28:58.531Z,11.94
2022-12-29T03:39:13.150Z,11.94
2022-12-29T03:49:16.490Z,11.93
2022-12-29T03:59:22.954Z,11.92
2022-12-29T04:09:26.289Z,12.02
2022-12-29T04:19:30.963Z,11.93
2022-12-29T04:29:34.254Z,11.90
2022-12-29T04:39:48.989Z,11.82
2022-12-29T04:49:53.178Z,12.04
2022-12-29T05:00:14.180Z,12.18
2022-12-29T05:10:17.386Z,12.00
2022-12-29T05:20:23.332Z,11.76
2022-12-29T05:30:27.080Z,11.61
2022-12-29T05:40:31.617Z,11.54
2022-12-29T05:50:38.863Z,11.57
2022-12-29T06:00:49.651Z,11.49
2022-12-29T06:10:52.935Z,11.41
2022-12-29T06:21:01.887Z,11.07
2022-12-29T06:31:05.108Z,11.02
2022-12-29T06:41:09.668Z,11.06
2022-12-29T06:51:12.685Z,11.00
2022-12-29T07:01:16.932Z,10.96
2022-12-29T07:11:20.345Z,10.86
2022-12-29T07:21:25.023Z,10.99
2022-12-29T07:31:28.089Z,11.03
2022-12-29T07:41:32.581Z,11.03
2022-12-29T07:51:38.345Z,10.97
2022-12-29T08:01:42.888Z,11.04
2022-12-29T08:11:46.211Z,11.06
2022-12-29T08:21:50.473Z,10.99
2022-12-29T08:31:53.607Z,11.02
2022-12-29T08:41:58.072Z,11.03
2022-12-29T08:52:01.437Z,11.06
2022-12-29T09:02:06.125Z,11.13
2022-12-29T09:12:09.409Z,11.24
2022-12-29T09:22:13.901Z,11.19
2022-12-29T09:32:18.720Z,11.27
2022-12-29T09:42:29.674Z,11.29
2022-12-29T09:52:37.686Z,11.34
2022-12-29T10:02:45.932Z,11.60
2022-12-29T10:13:08.672Z,11.67
2022-12-29T10:23:28.356Z,11.76
2022-12-29T10:33:37.317Z,11.85
2022-12-29T10:43:46.024Z,11.93
2022-12-29T10:53:53.465Z,12.12
2022-12-29T11:04:05.229Z,11.99
2022-12-29T11:14:14.618Z,12.21
2022-12-29T11:24:25.312Z,12.23
2022-12-29T11:34:33.928Z,12.24
2022-12-29T11:44:44.619Z,12.24
2022-12-29T11:54:47.775Z,12.23
2022-12-29T12:04:56.351Z,12.20
2022-12-29T12:15:01.820Z,12.10
2022-12-29T12:25:32.001Z,11.99
2022-12-29T12:35:45.285Z,11.94
2022-12-29T12:46:00.699Z,11.95
2022-12-29T12:56:23.565Z,12.03
2022-12-29T13:06:40.113Z,11.86
2022-12-29T13:16:50.772Z,11.79
2022-12-29T13:27:01.637Z,11.86
2022-12-29T13:37:10.895Z,11.84
2022-12-29T13:47:23.581Z,11.78
2022-12-29T13:57:37.276Z,11.78
2022-12-29T14:07:42.432Z,11.93
2022-12-29T14:17:46.348Z,11.86
2022-12-29T14:27:59.571Z,11.80
2022-12-29T14:38:16.902Z,11.60
2022-12-29T14:48:35.730Z,11.50
2022-12-29T14:58:48.513Z,11.45
2022-12-29T15:08:57.843Z,11.26
2022-12-29T15:19:01.862Z,10.48
2022-12-29T15:29:06.328Z,10.65
2022-12-29T15:39:20.368Z,10.44
2022-12-29T15:49:31.851Z,10.41
2022-12-29T15:59:36.155Z,10.38
2022-12-29T16:09:45.427Z,10.19
2022-12-29T16:19:51.354Z,10.05
2022-12-29T16:29:57.515Z,10.04
2022-12-29T16:40:30.857Z,9.87
2022-12-29T16:50:37.511Z,9.79
2022-12-29T17:00:40.600Z,9.88
2022-12-29T17:11:02.814Z,9.75
2022-12-29T17:21:06.031Z,9.72
2022-12-29T17:31:12.335Z,9.76
2022-12-29T17:41:16.655Z,9.69
2022-12-29T17:51:22.321Z,9.72
2022-12-29T18:01:31.006Z,9.66
2022-12-29T18:11:40.549Z,9.62
2022-12-29T18:21:45.713Z,9.56
2022-12-29T18:31:50.248Z,9.66
2022-12-29T18:41:53.417Z,9.67
2022-12-29T18:51:57.942Z,9.65
2022-12-29T19:02:01.017Z,9.51
2022-12-29T19:12:06.420Z,9.57
2022-12-29T19:22:09.598Z,9.54
2022-12-29T19:32:14.423Z,9.57
2022-12-29T19:42:17.433Z,9.43
2022-12-29T19:52:21.689Z,9.30
2022-12-29T20:02:26.674Z,9.28
2022-12-29T20:12:31.104Z,8.99
2022-12-29T20:22:34.295Z,8.78
2022-12-29T20:32:38.595Z,9.46
2022-12-29T20:42:41.808Z,9.03
2022-12-29T20:52:47.051Z,8.81
2022-12-29T21:02:50.570Z,8.97
2022-12-29T21:12:55.029Z,8.87
2022-12-29T21:22:59.455Z,8.80
2022-12-29T21:33:03.757Z,8.86
2022-12-29T21:43:07.769Z,8.79
2022-12-29T21:53:12.098Z,8.71
2022-12-29T22:03:32.890Z,8.65
2022-12-29T22:13:39.743Z,8.62
2022-12-29T22:23:43.152Z,8.48
2022-12-29T22:33:47.693Z,8.37
2022-12-29T22:43:50.910Z,8.26
2022-12-29T22:53:55.425Z,8.27
2022-12-29T23:04:27.119Z,8.26
2022-12-29T23:14:22.907Z,8.10
2022-12-29T23:24:26.320Z,8.02
2022-12-29T23:34:30.696Z,8.08
2022-12-29T23:44:33.992Z,8.14
2022-12-29T23:54:38.356Z,8.11
